Aurora Center, South Dakota
Current Conditions -  °F | °C
As of 4:35 PM on Monday 24 Nov 2014 (Local Time) from K9V9 Reporting Station
Clear Clear  
Wind Chill: 14°   Ceiling: Unl
Heat Index: 28°   Visibility: 10mi
Dew Point:   Wind: 21mph
Humidity: 41%   Direction: 310°NW
Pressure: 29.98"   Gusts: 26mph
Location:  43.5853°N, 98.5581°W
Report Text: K9V9 242235Z AUTO 31018G23KT 10SM CLR M02/M14 A2998 RMK AO2 T10241141
Loading
Personal Weather Stations






























Interactive Weather Map New forecast layout! Learn more

10-Day Weather Forecast

Advertisements
Track Severe Weather on mobile